sensor_id;sensor_type;location;lat;lon;timestamp;pressure;altitude;pressure_sealevel;temperature;humidity
49759;BME280;70329;45.524;10.194;2023-07-22T00:01:27;99748.19;;;22.67;87.31
49759;BME280;70329;45.524;10.194;2023-07-22T00:03:55;99742.72;;;22.71;87.68
49759;BME280;70329;45.524;10.194;2023-07-22T00:06:21;99734.34;;;22.71;86.48
49759;BME280;70329;45.524;10.194;2023-07-22T00:08:49;99736.25;;;22.67;85.34
49759;BME280;70329;45.524;10.194;2023-07-22T00:11:16;99740.25;;;22.50;86.49
49759;BME280;70329;45.524;10.194;2023-07-22T00:13:43;99736.69;;;22.53;85.33
49759;BME280;70329;45.524;10.194;2023-07-22T00:16:10;99735.84;;;22.49;85.81
49759;BME280;70329;45.524;10.194;2023-07-22T00:18:37;99741.56;;;22.56;84.54
49759;BME280;70329;45.524;10.194;2023-07-22T00:21:05;99733.56;;;22.54;83.70
49759;BME280;70329;45.524;10.194;2023-07-22T00:23:33;99727.44;;;22.30;84.10
49759;BME280;70329;45.524;10.194;2023-07-22T00:25:59;99724.56;;;22.26;84.61
49759;BME280;70329;45.524;10.194;2023-07-22T00:28:26;99716.19;;;22.26;85.33
49759;BME280;70329;45.524;10.194;2023-07-22T00:30:51;99717.63;;;22.36;84.58
49759;BME280;70329;45.524;10.194;2023-07-22T00:33:18;99721.34;;;22.43;84.42
49759;BME280;70329;45.524;10.194;2023-07-22T00:35:47;99720.53;;;22.43;83.71
49759;BME280;70329;45.524;10.194;2023-07-22T00:38:16;99714.63;;;22.44;83.02
49759;BME280;70329;45.524;10.194;2023-07-22T00:40:43;99707.63;;;22.35;83.56
49759;BME280;70329;45.524;10.194;2023-07-22T00:43:10;99698.13;;;22.39;83.02
49759;BME280;70329;45.524;10.194;2023-07-22T00:45:37;99698.94;;;22.40;83.55
49759;BME280;70329;45.524;10.194;2023-07-22T00:48:05;99698.94;;;22.40;83.27
49759;BME280;70329;45.524;10.194;2023-07-22T00:50:33;99701.31;;;22.38;82.87
49759;BME280;70329;45.524;10.194;2023-07-22T00:53:00;99702.47;;;22.37;82.89
49759;BME280;70329;45.524;10.194;2023-07-22T00:55:27;99703.72;;;22.39;83.01
49759;BME280;70329;45.524;10.194;2023-07-22T00:57:54;99702.47;;;22.37;82.60
49759;BME280;70329;45.524;10.194;2023-07-22T01:00:22;99694.09;;;22.37;83.35
49759;BME280;70329;45.524;10.194;2023-07-22T01:02:49;99702.25;;;22.45;82.55
49759;BME280;70329;45.524;10.194;2023-07-22T01:05:16;99693.53;;;22.47;81.91
49759;BME280;70329;45.524;10.194;2023-07-22T01:07:43;99699.84;;;22.44;82.79
49759;BME280;70329;45.524;10.194;2023-07-22T01:10:12;99698.22;;;22.43;81.58
49759;BME280;70329;45.524;10.194;2023-07-22T01:12:38;99695.50;;;22.27;83.39
49759;BME280;70329;45.524;10.194;2023-07-22T01:15:06;99691.78;;;22.39;82.61
49759;BME280;70329;45.524;10.194;2023-07-22T01:17:36;99690.22;;;22.41;82.46
49759;BME280;70329;45.524;10.194;2023-07-22T01:20:04;99689.25;;;22.34;82.01
49759;BME280;70329;45.524;10.194;2023-07-22T01:22:32;99684.84;;;22.33;81.54
49759;BME280;70329;45.524;10.194;2023-07-22T01:24:58;99690.13;;;22.19;82.13
49759;BME280;70329;45.524;10.194;2023-07-22T01:27:25;99693.13;;;22.29;81.04
49759;BME280;70329;45.524;10.194;2023-07-22T01:29:52;99689.09;;;22.27;81.97
49759;BME280;70329;45.524;10.194;2023-07-22T01:32:19;99688.41;;;22.14;82.87
49759;BME280;70329;45.524;10.194;2023-07-22T01:34:46;99686.31;;;22.27;81.61
49759;BME280;70329;45.524;10.194;2023-07-22T01:37:13;99685.94;;;22.28;81.61
49759;BME280;70329;45.524;10.194;2023-07-22T01:39:40;99696.31;;;22.28;81.54
49759;BME280;70329;45.524;10.194;2023-07-22T01:42:06;99695.34;;;22.39;81.71
49759;BME280;70329;45.524;10.194;2023-07-22T01:44:33;99689.22;;;22.49;80.72
49759;BME280;70329;45.524;10.194;2023-07-22T01:47:02;99687.22;;;22.50;80.13
49759;BME280;70329;45.524;10.194;2023-07-22T01:49:29;99680.66;;;22.42;81.23
49759;BME280;70329;45.524;10.194;2023-07-22T01:51:56;99685.09;;;22.43;81.75
49759;BME280;70329;45.524;10.194;2023-07-22T01:54:22;99682.66;;;22.42;81.74
49759;BME280;70329;45.524;10.194;2023-07-22T01:56:47;99688.16;;;22.38;80.78
49759;BME280;70329;45.524;10.194;2023-07-22T01:59:12;99681.91;;;22.45;79.32
49759;BME280;70329;45.524;10.194;2023-07-22T02:01:38;99686.19;;;22.39;80.15
49759;BME280;70329;45.524;10.194;2023-07-22T02:04:03;99676.31;;;22.26;81.30
49759;BME280;70329;45.524;10.194;2023-07-22T02:06:30;99683.09;;;22.25;81.68
49759;BME280;70329;45.524;10.194;2023-07-22T02:08:57;99694.38;;;22.13;82.30
49759;BME280;70329;45.524;10.194;2023-07-22T02:11:23;99699.66;;;22.18;82.28
49759;BME280;70329;45.524;10.194;2023-07-22T02:13:50;99699.38;;;22.23;81.42
49759;BME280;70329;45.524;10.194;2023-07-22T02:16:17;99698.13;;;22.20;81.39
49759;BME280;70329;45.524;10.194;2023-07-22T02:18:45;99701.72;;;22.21;82.15
49759;BME280;70329;45.524;10.194;2023-07-22T02:21:11;99713.59;;;22.18;82.39
49759;BME280;70329;45.524;10.194;2023-07-22T02:23:38;99726.66;;;22.14;82.57
49759;BME280;70329;45.524;10.194;2023-07-22T02:26:04;99731.28;;;22.25;82.90
49759;BME280;70329;45.524;10.194;2023-07-22T02:28:32;99732.44;;;22.40;83.35
49759;BME280;70329;45.524;10.194;2023-07-22T02:31:02;99741.25;;;22.42;83.74
49759;BME280;70329;45.524;10.194;2023-07-22T02:33:33;99755.56;;;22.40;84.28
49759;BME280;70329;45.524;10.194;2023-07-22T02:36:00;99755.28;;;22.45;85.99
49759;BME280;70329;45.524;10.194;2023-07-22T02:38:26;99756.09;;;22.46;85.77
49759;BME280;70329;45.524;10.194;2023-07-22T02:40:53;99756.19;;;22.49;86.51
49759;BME280;70329;45.524;10.194;2023-07-22T02:43:19;99761.47;;;22.54;87.44
49759;BME280;70329;45.524;10.194;2023-07-22T02:45:46;99758.88;;;22.46;88.46
49759;BME280;70329;45.524;10.194;2023-07-22T02:48:14;99768.50;;;22.48;89.66
49759;BME280;70329;45.524;10.194;2023-07-22T02:50:40;99767.78;;;22.51;90.11
49759;BME280;70329;45.524;10.194;2023-07-22T02:53:07;99768.34;;;22.41;90.41
49759;BME280;70329;45.524;10.194;2023-07-22T02:55:34;99773.84;;;22.38;91.88
49759;BME280;70329;45.524;10.194;2023-07-22T02:58:01;99771.88;;;22.23;93.36
49759;BME280;70329;45.524;10.194;2023-07-22T03:00:27;99786.94;;;22.18;94.45
49759;BME280;70329;45.524;10.194;2023-07-22T03:02:55;99794.75;;;22.13;95.42
49759;BME280;70329;45.524;10.194;2023-07-22T03:05:28;99790.72;;;22.10;95.34
49759;BME280;70329;45.524;10.194;2023-07-22T03:07:55;99795.13;;;22.11;95.51
49759;BME280;70329;45.524;10.194;2023-07-22T03:10:22;99797.09;;;21.95;96.69
49759;BME280;70329;45.524;10.194;2023-07-22T03:12:49;99795.19;;;21.83;97.76
49759;BME280;70329;45.524;10.194;2023-07-22T03:15:16;99801.22;;;21.85;97.73
49759;BME280;70329;45.524;10.194;2023-07-22T03:17:42;99804.59;;;21.91;97.86
49759;BME280;70329;45.524;10.194;2023-07-22T03:20:10;99801.44;;;21.92;97.01
49759;BME280;70329;45.524;10.194;2023-07-22T03:22:40;99805.31;;;21.88;97.20
49759;BME280;70329;45.524;10.194;2023-07-22T03:25:11;99805.84;;;21.93;97.19
49759;BME280;70329;45.524;10.194;2023-07-22T03:27:39;99800.88;;;21.87;97.41
49759;BME280;70329;45.524;10.194;2023-07-22T03:30:07;99794.28;;;21.79;98.51
49759;BME280;70329;45.524;10.194;2023-07-22T03:32:34;99803.38;;;21.76;98.31
49759;BME280;70329;45.524;10.194;2023-07-22T03:35:01;99802.75;;;21.83;99.15
49759;BME280;70329;45.524;10.194;2023-07-22T03:37:28;99796.28;;;21.94;98.58
49759;BME280;70329;45.524;10.194;2023-07-22T03:39:55;99804.94;;;22.05;97.91
49759;BME280;70329;45.524;10.194;2023-07-22T03:42:22;99805.72;;;22.05;96.80
49759;BME280;70329;45.524;10.194;2023-07-22T03:44:48;99808.06;;;22.03;96.19
49759;BME280;70329;45.524;10.194;2023-07-22T03:47:15;99802.50;;;22.03;96.24
49759;BME280;70329;45.524;10.194;2023-07-22T03:49:41;99815.72;;;22.07;96.12
49759;BME280;70329;45.524;10.194;2023-07-22T03:52:08;99815.09;;;22.13;96.36
49759;BME280;70329;45.524;10.194;2023-07-22T03:54:34;99821.31;;;22.07;95.31
49759;BME280;70329;45.524;10.194;2023-07-22T03:57:01;99826.34;;;22.01;95.97
49759;BME280;70329;45.524;10.194;2023-07-22T03:59:28;99825.00;;;21.95;96.15
49759;BME280;70329;45.524;10.194;2023-07-22T04:01:55;99834.09;;;22.08;96.51
49759;BME280;70329;45.524;10.194;2023-07-22T04:04:22;99842.34;;;22.20;96.58
49759;BME280;70329;45.524;10.194;2023-07-22T04:06:48;99841.81;;;22.30;95.85
49759;BME280;70329;45.524;10.194;2023-07-22T04:09:15;99856.00;;;22.40;94.52
49759;BME280;70329;45.524;10.194;2023-07-22T04:11:41;99857.38;;;22.46;94.09
49759;BME280;70329;45.524;10.194;2023-07-22T04:14:08;99848.09;;;22.42;93.08
49759;BME280;70329;45.524;10.194;2023-07-22T04:16:35;99855.56;;;22.38;94.89
49759;BME280;70329;45.524;10.194;2023-07-22T04:19:01;99855.03;;;22.33;94.39
49759;BME280;70329;45.524;10.194;2023-07-22T04:21:28;99861.44;;;22.33;95.05
49759;BME280;70329;45.524;10.194;2023-07-22T04:23:55;99864.66;;;22.35;94.42
49759;BME280;70329;45.524;10.194;2023-07-22T04:26:21;99862.75;;;22.39;94.32
49759;BME280;70329;45.524;10.194;2023-07-22T04:28:48;99859.34;;;22.46;94.60
49759;BME280;70329;45.524;10.194;2023-07-22T04:31:14;99862.28;;;22.53;94.49
49759;BME280;70329;45.524;10.194;2023-07-22T04:33:41;99865.59;;;22.58;93.67
49759;BME280;70329;45.524;10.194;2023-07-22T04:36:08;99873.28;;;22.46;92.85
49759;BME280;70329;45.524;10.194;2023-07-22T04:38:33;99879.50;;;22.39;94.29
49759;BME280;70329;45.524;10.194;2023-07-22T04:40:58;99879.16;;;22.25;95.09
49759;BME280;70329;45.524;10.194;2023-07-22T04:43:27;99882.22;;;22.04;97.29
49759;BME280;70329;45.524;10.194;2023-07-22T04:45:52;99898.41;;;21.99;99.07
49759;BME280;70329;45.524;10.194;2023-07-22T04:48:20;99897.75;;;22.05;99.50
49759;BME280;70329;45.524;10.194;2023-07-22T04:50:47;99910.16;;;21.92;98.41
49759;BME280;70329;45.524;10.194;2023-07-22T04:53:14;99914.22;;;21.95;98.50
49759;BME280;70329;45.524;10.194;2023-07-22T04:55:41;99916.72;;;22.00;98.54
49759;BME280;70329;45.524;10.194;2023-07-22T04:58:07;99931.00;;;22.11;98.50
49759;BME280;70329;45.524;10.194;2023-07-22T05:00:38;99937.88;;;22.01;98.57
49759;BME280;70329;45.524;10.194;2023-07-22T05:03:05;99939.69;;;21.93;99.20
49759;BME280;70329;45.524;10.194;2023-07-22T05:05:32;99935.63;;;21.91;99.05
49759;BME280;70329;45.524;10.194;2023-07-22T05:07:59;99939.94;;;21.88;98.71
49759;BME280;70329;45.524;10.194;2023-07-22T05:10:26;99948.88;;;21.94;98.67
49759;BME280;70329;45.524;10.194;2023-07-22T05:12:55;99935.03;;;21.85;98.72
49759;BME280;70329;45.524;10.194;2023-07-22T05:15:24;99933.03;;;21.98;98.37
49759;BME280;70329;45.524;10.194;2023-07-22T05:17:51;99937.72;;;22.10;97.34
49759;BME280;70329;45.524;10.194;2023-07-22T05:20:18;99933.50;;;22.16;96.60
49759;BME280;70329;45.524;10.194;2023-07-22T05:22:45;99935.41;;;22.27;96.35
49759;BME280;70329;45.524;10.194;2023-07-22T05:25:11;99937.31;;;22.39;95.34
49759;BME280;70329;45.524;10.194;2023-07-22T05:27:39;99937.63;;;22.53;94.95
49759;BME280;70329;45.524;10.194;2023-07-22T05:30:06;99938.56;;;22.73;93.65
49759;BME280;70329;45.524;10.194;2023-07-22T05:32:33;99939.63;;;22.99;91.70
49759;BME280;70329;45.524;10.194;2023-07-22T05:35:00;99941.94;;;23.32;89.86
49759;BME280;70329;45.524;10.194;2023-07-22T05:37:28;99944.34;;;23.49;87.69
49759;BME280;70329;45.524;10.194;2023-07-22T05:39:54;99944.19;;;23.42;86.58
49759;BME280;70329;45.524;10.194;2023-07-22T05:42:21;99944.31;;;23.30;87.85
49759;BME280;70329;45.524;10.194;2023-07-22T05:44:48;99936.72;;;23.31;88.82
49759;BME280;70329;45.524;10.194;2023-07-22T05:47:15;99934.41;;;23.52;86.84
49759;BME280;70329;45.524;10.194;2023-07-22T05:49:41;99940.22;;;23.62;85.63
49759;BME280;70329;45.524;10.194;2023-07-22T05:52:08;99942.38;;;23.69;84.66
49759;BME280;70329;45.524;10.194;2023-07-22T05:54:35;99938.56;;;24.00;79.94
49759;BME280;70329;45.524;10.194;2023-07-22T05:57:01;99933.25;;;25.64;70.90
49759;BME280;70329;45.524;10.194;2023-07-22T05:59:30;99930.66;;;27.82;60.18
49759;BME280;70329;45.524;10.194;2023-07-22T06:01:56;99926.41;;;30.68;49.90
49759;BME280;70329;45.524;10.194;2023-07-22T06:04:21;99922.63;;;33.82;41.28
49759;BME280;70329;45.524;10.194;2023-07-22T06:06:48;99931.44;;;36.70;36.14
49759;BME280;70329;45.524;10.194;2023-07-22T06:09:13;99935.22;;;38.84;31.58
49759;BME280;70329;45.524;10.194;2023-07-22T06:11:39;99938.63;;;39.73;28.82
49759;BME280;70329;45.524;10.194;2023-07-22T06:14:05;99947.16;;;40.60;28.22
49759;BME280;70329;45.524;10.194;2023-07-22T06:16:32;99949.00;;;41.29;27.38
49759;BME280;70329;45.524;10.194;2023-07-22T06:18:59;99945.03;;;41.65;25.92
49759;BME280;70329;45.524;10.194;2023-07-22T06:21:25;99943.31;;;41.58;25.78
49759;BME280;70329;45.524;10.194;2023-07-22T06:23:52;99944.38;;;42.58;25.16
49759;BME280;70329;45.524;10.194;2023-07-22T06:26:19;99934.13;;;43.12;24.39
49759;BME280;70329;45.524;10.194;2023-07-22T06:28:45;99935.00;;;43.58;23.73
49759;BME280;70329;45.524;10.194;2023-07-22T06:31:12;99939.63;;;44.58;21.71
49759;BME280;70329;45.524;10.194;2023-07-22T06:33:39;99942.88;;;45.20;21.27
49759;BME280;70329;45.524;10.194;2023-07-22T06:36:06;99936.44;;;44.99;21.34
49759;BME280;70329;45.524;10.194;2023-07-22T06:38:32;99935.66;;;44.25;21.76
49759;BME280;70329;45.524;10.194;2023-07-22T06:40:59;99941.44;;;42.92;22.44
49759;BME280;70329;45.524;10.194;2023-07-22T06:43:26;99937.19;;;43.69;21.69
49759;BME280;70329;45.524;10.194;2023-07-22T06:45:52;99934.59;;;43.96;21.67
49759;BME280;70329;45.524;10.194;2023-07-22T06:48:19;99941.50;;;45.15;20.80
49759;BME280;70329;45.524;10.194;2023-07-22T06:50:49;99946.03;;;46.19;19.86
49759;BME280;70329;45.524;10.194;2023-07-22T06:53:15;99943.78;;;45.42;20.38
49759;BME280;70329;45.524;10.194;2023-07-22T06:55:51;99952.66;;;43.91;22.42
49759;BME280;70329;45.524;10.194;2023-07-22T06:58:19;99942.66;;;43.67;22.52
49759;BME280;70329;45.524;10.194;2023-07-22T07:00:46;99944.56;;;43.29;23.12
49759;BME280;70329;45.524;10.194;2023-07-22T07:03:13;99948.44;;;44.49;20.93
49759;BME280;70329;45.524;10.194;2023-07-22T07:05:39;99948.13;;;42.84;23.66
49759;BME280;70329;45.524;10.194;2023-07-22T07:08:08;99954.50;;;41.42;24.73
49759;BME280;70329;45.524;10.194;2023-07-22T07:10:39;99955.13;;;38.47;28.64
49759;BME280;70329;45.524;10.194;2023-07-22T07:13:06;99961.91;;;38.10;30.19
49759;BME280;70329;45.524;10.194;2023-07-22T07:15:33;99961.53;;;36.08;32.53
49759;BME280;70329;45.524;10.194;2023-07-22T07:17:59;99950.88;;;36.62;32.33
49759;BME280;70329;45.524;10.194;2023-07-22T07:20:24;99954.59;;;35.51;34.42
49759;BME280;70329;45.524;10.194;2023-07-22T07:22:50;99953.78;;;34.06;36.35
49759;BME280;70329;45.524;10.194;2023-07-22T07:25:15;99950.56;;;33.84;37.05
49759;BME280;70329;45.524;10.194;2023-07-22T07:27:41;99960.50;;;31.39;41.58
49759;BME280;70329;45.524;10.194;2023-07-22T07:30:07;99966.38;;;31.18;42.87
49759;BME280;70329;45.524;10.194;2023-07-22T07:32:34;99968.22;;;30.42;46.70
49759;BME280;70329;45.524;10.194;2023-07-22T07:34:59;99976.16;;;29.82;48.04
49759;BME280;70329;45.524;10.194;2023-07-22T07:37:25;99977.50;;;29.38;48.24
49759;BME280;70329;45.524;10.194;2023-07-22T07:39:51;99975.91;;;28.84;46.38
49759;BME280;70329;45.524;10.194;2023-07-22T07:42:18;99980.75;;;28.87;46.90
49759;BME280;70329;45.524;10.194;2023-07-22T07:44:45;99973.91;;;28.81;46.86
49759;BME280;70329;45.524;10.194;2023-07-22T07:47:12;99987.13;;;28.46;48.75
49759;BME280;70329;45.524;10.194;2023-07-22T07:49:39;99983.03;;;28.04;48.93
49759;BME280;70329;45.524;10.194;2023-07-22T07:52:06;99984.63;;;28.09;50.72
49759;BME280;70329;45.524;10.194;2023-07-22T07:54:33;99986.94;;;27.17;53.93
49759;BME280;70329;45.524;10.194;2023-07-22T07:57:00;99988.59;;;27.25;54.57
49759;BME280;70329;45.524;10.194;2023-07-22T07:59:28;99980.84;;;26.64;57.08
49759;BME280;70329;45.524;10.194;2023-07-22T08:01:54;99990.19;;;26.75;58.18
49759;BME280;70329;45.524;10.194;2023-07-22T08:04:21;99987.25;;;26.57;56.32
49759;BME280;70329;45.524;10.194;2023-07-22T08:06:47;99993.00;;;26.72;55.45
49759;BME280;70329;45.524;10.194;2023-07-22T08:09:14;99988.91;;;26.66;55.14
49759;BME280;70329;45.524;10.194;2023-07-22T08:11:45;99988.72;;;26.85;54.74
49759;BME280;70329;45.524;10.194;2023-07-22T08:14:12;99990.13;;;26.68;54.83
49759;BME280;70329;45.524;10.194;2023-07-22T08:16:40;99988.06;;;26.61;56.28
49759;BME280;70329;45.524;10.194;2023-07-22T08:19:07;99988.31;;;26.46;55.64
49759;BME280;70329;45.524;10.194;2023-07-22T08:21:33;99992.88;;;26.61;56.64
49759;BME280;70329;45.524;10.194;2023-07-22T08:23:58;99983.31;;;27.13;56.75
49759;BME280;70329;45.524;10.194;2023-07-22T08:26:23;99983.38;;;27.24;55.01
49759;BME280;70329;45.524;10.194;2023-07-22T08:28:49;99980.72;;;27.41;55.35
49759;BME280;70329;45.524;10.194;2023-07-22T08:31:14;99974.53;;;27.25;55.81
49759;BME280;70329;45.524;10.194;2023-07-22T08:33:39;99967.59;;;27.05;55.42
49759;BME280;70329;45.524;10.194;2023-07-22T08:36:05;99975.13;;;26.94;55.50
49759;BME280;70329;45.524;10.194;2023-07-22T08:38:30;99972.78;;;26.99;55.38
49759;BME280;70329;45.524;10.194;2023-07-22T08:40:56;99981.91;;;26.89;55.32
49759;BME280;70329;45.524;10.194;2023-07-22T08:43:21;99979.13;;;26.52;54.44
49759;BME280;70329;45.524;10.194;2023-07-22T08:45:48;99977.69;;;26.66;54.48
49759;BME280;70329;45.524;10.194;2023-07-22T08:48:16;99973.06;;;26.87;54.90
49759;BME280;70329;45.524;10.194;2023-07-22T08:50:52;99977.06;;;26.83;55.20
49759;BME280;70329;45.524;10.194;2023-07-22T08:53:19;99966.09;;;27.25;57.81
49759;BME280;70329;45.524;10.194;2023-07-22T08:55:44;99966.81;;;27.80;52.34
49759;BME280;70329;45.524;10.194;2023-07-22T08:58:11;99973.50;;;27.44;53.73
49759;BME280;70329;45.524;10.194;2023-07-22T09:00:38;99967.06;;;27.50;54.81
49759;BME280;70329;45.524;10.194;2023-07-22T09:03:04;99959.44;;;27.51;53.54
49759;BME280;70329;45.524;10.194;2023-07-22T09:05:33;99951.69;;;27.30;52.90
49759;BME280;70329;45.524;10.194;2023-07-22T09:08:01;99958.00;;;27.16;53.40
49759;BME280;70329;45.524;10.194;2023-07-22T09:10:27;99951.97;;;27.14;52.41
49759;BME280;70329;45.524;10.194;2023-07-22T09:12:53;99970.16;;;26.77;52.46
49759;BME280;70329;45.524;10.194;2023-07-22T09:15:18;99985.34;;;26.72;54.23
49759;BME280;70329;45.524;10.194;2023-07-22T09:17:44;99976.13;;;26.72;54.72
49759;BME280;70329;45.524;10.194;2023-07-22T09:20:12;99980.72;;;26.50;54.83
49759;BME280;70329;45.524;10.194;2023-07-22T09:22:46;100002.69;;;26.37;55.43
49759;BME280;70329;45.524;10.194;2023-07-22T09:25:20;99987.69;;;26.23;56.58
49759;BME280;70329;45.524;10.194;2023-07-22T09:27:46;99970.19;;;26.03;57.03
49759;BME280;70329;45.524;10.194;2023-07-22T09:30:29;99977.31;;;25.97;57.45
49759;BME280;70329;45.524;10.194;2023-07-22T09:32:59;99979.66;;;25.88;56.56
49759;BME280;70329;45.524;10.194;2023-07-22T09:35:27;99980.88;;;25.90;57.71
49759;BME280;70329;45.524;10.194;2023-07-22T09:37:54;99984.50;;;25.94;60.11
49759;BME280;70329;45.524;10.194;2023-07-22T09:40:22;99998.50;;;25.91;62.94
49759;BME280;70329;45.524;10.194;2023-07-22T09:42:53;99988.38;;;25.83;62.40
49759;BME280;70329;45.524;10.194;2023-07-22T09:45:25;99972.03;;;25.59;62.07
49759;BME280;70329;45.524;10.194;2023-07-22T09:47:53;99975.56;;;25.52;61.66
49759;BME280;70329;45.524;10.194;2023-07-22T09:50:24;99980.25;;;25.44;62.51
49759;BME280;70329;45.524;10.194;2023-07-22T09:52:57;99973.75;;;25.40;62.00
49759;BME280;70329;45.524;10.194;2023-07-22T09:55:27;99968.53;;;25.39;64.42
49759;BME280;70329;45.524;10.194;2023-07-22T09:58:03;99958.31;;;25.24;64.65
49759;BME280;70329;45.524;10.194;2023-07-22T10:00:33;99935.31;;;25.11;64.82
49759;BME280;70329;45.524;10.194;2023-07-22T10:03:01;99924.31;;;24.99;65.51
49759;BME280;70329;45.524;10.194;2023-07-22T10:05:28;99918.22;;;24.94;65.68
49759;BME280;70329;45.524;10.194;2023-07-22T10:07:58;99917.88;;;24.95;66.53
49759;BME280;70329;45.524;10.194;2023-07-22T10:10:35;99940.16;;;24.88;70.18
49759;BME280;70329;45.524;10.194;2023-07-22T10:13:02;99967.00;;;24.66;70.83
49759;BME280;70329;45.524;10.194;2023-07-22T10:15:30;99982.63;;;24.67;71.19
49759;BME280;70329;45.524;10.194;2023-07-22T10:17:58;99995.00;;;24.66;70.86
49759;BME280;70329;45.524;10.194;2023-07-22T10:20:25;99989.41;;;24.66;71.73
49759;BME280;70329;45.524;10.194;2023-07-22T10:22:52;99976.97;;;24.64;71.28
49759;BME280;70329;45.524;10.194;2023-07-22T10:25:20;99977.78;;;24.64;71.05
49759;BME280;70329;45.524;10.194;2023-07-22T10:27:48;99979.06;;;24.70;71.91
49759;BME280;70329;45.524;10.194;2023-07-22T10:30:16;99986.34;;;24.75;73.46
49759;BME280;70329;45.524;10.194;2023-07-22T10:32:51;99995.63;;;24.79;73.43
49759;BME280;70329;45.524;10.194;2023-07-22T10:38:15;99970.44;;;25.05;74.04
49759;BME280;70329;45.524;10.194;2023-07-22T10:40:53;99957.59;;;25.57;69.21
49759;BME280;70329;45.524;10.194;2023-07-22T10:43:40;99966.31;;;26.55;65.36
49759;BME280;70329;45.524;10.194;2023-07-22T10:46:12;99961.81;;;27.42;62.50
49759;BME280;70329;45.524;10.194;2023-07-22T10:48:41;99962.34;;;27.68;57.77
49759;BME280;70329;45.524;10.194;2023-07-22T10:51:12;99963.38;;;28.29;57.21
49759;BME280;70329;45.524;10.194;2023-07-22T10:53:42;99952.16;;;28.82;51.31
49759;BME280;70329;45.524;10.194;2023-07-22T10:56:15;99958.59;;;29.25;50.05
49759;BME280;70329;45.524;10.194;2023-07-22T11:01:22;99957.38;;;28.87;51.17
49759;BME280;70329;45.524;10.194;2023-07-22T11:06:31;99941.72;;;28.72;51.94
49759;BME280;70329;45.524;10.194;2023-07-22T11:08:57;99948.56;;;28.92;51.17
49759;BME280;70329;45.524;10.194;2023-07-22T11:11:36;99949.34;;;28.82;48.37
49759;BME280;70329;45.524;10.194;2023-07-22T11:14:22;99959.00;;;28.88;47.55
49759;BME280;70329;45.524;10.194;2023-07-22T11:16:48;99955.38;;;28.98;50.21
49759;BME280;70329;45.524;10.194;2023-07-22T11:19:15;99960.56;;;28.43;51.98
49759;BME280;70329;45.524;10.194;2023-07-22T11:21:42;99957.34;;;28.34;55.11
49759;BME280;70329;45.524;10.194;2023-07-22T11:24:09;99953.38;;;28.67;49.84
49759;BME280;70329;45.524;10.194;2023-07-22T11:26:37;99946.13;;;28.98;48.55
49759;BME280;70329;45.524;10.194;2023-07-22T11:29:04;99947.34;;;28.75;49.10
49759;BME280;70329;45.524;10.194;2023-07-22T11:31:34;99954.97;;;29.00;51.13
49759;BME280;70329;45.524;10.194;2023-07-22T11:34:00;99956.97;;;29.13;51.13
49759;BME280;70329;45.524;10.194;2023-07-22T11:36:29;99964.63;;;29.09;52.20
49759;BME280;70329;45.524;10.194;2023-07-22T11:39:02;99965.06;;;29.01;52.78
49759;BME280;70329;45.524;10.194;2023-07-22T11:41:29;99960.22;;;28.69;51.12
49759;BME280;70329;45.524;10.194;2023-07-22T11:43:56;99958.19;;;28.98;51.33
49759;BME280;70329;45.524;10.194;2023-07-22T11:46:22;99966.22;;;29.07;52.22
49759;BME280;70329;45.524;10.194;2023-07-22T11:48:51;99961.44;;;28.72;51.66
49759;BME280;70329;45.524;10.194;2023-07-22T11:51:21;99959.41;;;28.94;50.83
49759;BME280;70329;45.524;10.194;2023-07-22T11:53:48;99949.31;;;29.17;50.38
49759;BME280;70329;45.524;10.194;2023-07-22T11:56:33;99958.19;;;28.56;50.95
49759;BME280;70329;45.524;10.194;2023-07-22T11:58:58;99948.97;;;28.83;52.21
49759;BME280;70329;45.524;10.194;2023-07-22T12:01:23;99951.34;;;28.81;48.69
49759;BME280;70329;45.524;10.194;2023-07-22T12:03:54;99944.13;;;28.77;49.35
49759;BME280;70329;45.524;10.194;2023-07-22T12:06:20;99940.47;;;29.12;47.33
49759;BME280;70329;45.524;10.194;2023-07-22T12:08:47;99927.97;;;29.23;48.35
49759;BME280;70329;45.524;10.194;2023-07-22T12:11:33;99925.91;;;29.20;48.27
49759;BME280;70329;45.524;10.194;2023-07-22T12:14:11;99925.97;;;28.81;48.69
49759;BME280;70329;45.524;10.194;2023-07-22T12:16:40;99921.56;;;28.80;49.62
49759;BME280;70329;45.524;10.194;2023-07-22T12:19:06;99922.72;;;29.04;50.09
49759;BME280;70329;45.524;10.194;2023-07-22T12:21:32;99911.78;;;29.41;49.41
49759;BME280;70329;45.524;10.194;2023-07-22T12:23:58;99908.16;;;29.44;47.35
49759;BME280;70329;45.524;10.194;2023-07-22T12:26:24;99909.75;;;29.53;46.50
49759;BME280;70329;45.524;10.194;2023-07-22T12:28:49;99904.03;;;29.67;47.75
49759;BME280;70329;45.524;10.194;2023-07-22T12:31:15;99920.59;;;29.58;47.76
49759;BME280;70329;45.524;10.194;2023-07-22T12:33:41;99908.91;;;29.59;45.64
49759;BME280;70329;45.524;10.194;2023-07-22T12:36:07;99898.78;;;29.69;47.98
49759;BME280;70329;45.524;10.194;2023-07-22T12:38:32;99891.94;;;29.70;47.73
49759;BME280;70329;45.524;10.194;2023-07-22T12:40:57;99896.88;;;29.44;47.04
49759;BME280;70329;45.524;10.194;2023-07-22T12:43:24;99891.22;;;29.48;47.81
49759;BME280;70329;45.524;10.194;2023-07-22T12:45:50;99888.81;;;29.43;48.37
49759;BME280;70329;45.524;10.194;2023-07-22T12:48:16;99887.16;;;29.49;47.58
49759;BME280;70329;45.524;10.194;2023-07-22T12:50:42;99888.03;;;29.32;47.19
49759;BME280;70329;45.524;10.194;2023-07-22T12:53:08;99887.28;;;29.24;47.03
49759;BME280;70329;45.524;10.194;2023-07-22T12:55:33;99888.06;;;29.18;48.82
49759;BME280;70329;45.524;10.194;2023-07-22T12:57:58;99886.38;;;29.49;48.10
49759;BME280;70329;45.524;10.194;2023-07-22T13:00:24;99885.97;;;29.47;49.78